Time;durP1;ratioP1;P1;durP2;ratioP2;P2;SDS_P1;SDS_P2;PMS_P1;PMS_P2;Temp;Humidity;BMP_temperature;BMP_pressure;BME280_temperature;BME280_humidity;BME280_pressure;Samples;Min_cycle;Max_cycle;Signal;HPM_P1;HPM_P2
2021/03/28 00:00:08;;;;;;;18.98;10.13;;;;;;;3.30;53.18;100650.56;5007952;28;20041;-71
2021/03/28 00:02:34;;;;;;;17.58;9.32;;;;;;;3.22;52.52;100657.91;5008320;28;20069;-72
2021/03/28 00:05:17;;;;;;;18.80;10.10;;;;;;;3.21;53.58;100660.63;5008159;28;20149;-73
2021/03/28 00:07:48;;;;;;;23.23;9.55;;;;;;;3.16;53.47;100658.16;5041632;28;20409;-75
2021/03/28 00:10:38;;;;;;;18.33;10.65;;;;;;;3.17;53.98;100659.88;5010565;28;20190;-73
2021/03/28 00:13:13;;;;;;;21.65;10.68;;;;;;;2.91;53.68;100626.41;5012420;28;20813;-75
2021/03/28 00:15:59;;;;;;;19.15;10.95;;;;;;;3.11;54.48;100652.13;5009931;28;20430;-63
2021/03/28 00:18:28;;;;;;;;;;;;;;;3.25;52.66;100659.56;5010393;28;20409;-73
2021/03/28 00:21:15;;;;;;;20.42;9.80;;;;;;;3.16;54.16;100655.50;5010590;28;19920;-74
2021/03/28 00:23:52;;;;;;;20.48;10.05;;;;;;;3.10;54.31;100661.00;5009970;28;20172;-73
2021/03/28 00:26:40;;;;;;;76.97;42.80;;;;;;;3.06;54.86;100664.69;5009127;28;20062;-74
2021/03/28 00:29:23;;;;;;;48.72;28.60;;;;;;;3.04;55.02;100669.16;5042663;28;20041;-71
2021/03/28 00:32:06;;;;;;;35.17;20.70;;;;;;;2.66;55.25;100601.72;5012038;28;20064;-72
2021/03/28 00:34:41;;;;;;;28.02;17.00;;;;;;;2.82;55.31;100631.13;5013928;28;20041;-75
2021/03/28 00:37:09;;;;;;;29.07;14.90;;;;;;;2.96;54.95;100658.84;5013911;28;20188;-75
2021/03/28 00:39:49;;;;;;;26.65;13.95;;;;;;;2.95;55.66;100659.78;5013921;28;20799;-73
2021/03/28 00:42:46;;;;;;;27.92;13.93;;;;;;;2.95;55.83;100658.00;5045318;28;20033;-74
2021/03/28 00:45:20;;;;;;;22.83;12.57;;;;;;;2.92;55.27;100660.75;5013578;28;20053;-76
2021/03/28 00:48:02;;;;;;;21.60;12.43;;;;;;;2.82;55.50;100640.81;5013720;28;20096;-74
2021/03/28 00:50:36;;;;;;;23.15;12.20;;;;;;;2.91;55.72;100666.97;5008881;28;20045;-70
2021/03/28 00:53:10;;;;;;;21.08;12.63;;;;;;;2.90;55.24;100665.25;5009460;28;20041;-71
2021/03/28 00:55:39;;;;;;;21.33;12.55;;;;;;;2.89;55.79;100668.78;5011160;28;20029;-71
2021/03/28 00:58:24;;;;;;;20.45;11.88;;;;;;;2.89;56.12;100662.63;5013868;28;20041;-74
2021/03/28 01:01:25;;;;;;;23.33;12.30;;;;;;;2.92;56.32;100662.53;5013205;28;20129;-74
2021/03/28 01:04:10;;;;;;;23.27;12.35;;;;;;;2.87;55.16;100660.03;5003640;28;20507;-72
2021/03/28 01:07:02;;;;;;;23.05;11.88;;;;;;;2.89;56.64;100668.78;5013089;28;20033;-73
2021/03/28 01:10:05;;;;;;;21.50;12.18;;;;;;;2.89;56.78;100667.94;5013401;28;20045;-74
2021/03/28 01:12:56;;;;;;;27.42;12.55;;;;;;;2.83;56.51;100661.06;5013108;28;20111;-73
2021/03/28 01:15:59;;;;;;;23.55;12.02;;;;;;;2.84;56.91;100670.72;5012515;28;20030;-69
2021/03/28 01:18:59;;;;;;;23.00;13.07;;;;;;;2.80;56.45;100674.41;4993506;28;20125;-73
2021/03/28 01:21:49;;;;;;;21.98;12.68;;;;;;;2.78;56.75;100671.81;5008475;28;20054;-74
2021/03/28 01:24:15;;;;;;;21.90;11.82;;;;;;;2.76;56.17;100672.78;4993462;28;20057;-73
2021/03/28 01:27:11;;;;;;;20.23;12.45;;;;;;;2.75;57.37;100671.91;4993614;28;20450;-74
2021/03/28 01:30:21;;;;;;;23.45;12.85;;;;;;;2.77;57.41;100677.16;5004665;28;20033;-73
2021/03/28 01:32:57;;;;;;;19.77;12.20;;;;;;;2.70;56.28;100680.03;5012291;28;20050;-72
2021/03/28 01:35:27;;;;;;;25.05;13.40;;;;;;;2.67;57.32;100679.25;5012827;28;20083;-74
2021/03/28 01:38:17;;;;;;;24.67;12.70;;;;;;;2.70;57.70;100680.03;5012425;28;20101;-71
2021/03/28 01:40:48;;;;;;;26.67;13.50;;;;;;;2.66;57.28;100688.97;5012255;28;20104;-70
2021/03/28 01:43:38;;;;;;;21.58;12.57;;;;;;;2.67;57.88;100689.81;4992471;28;20042;-71
2021/03/28 01:46:34;;;;;;;21.73;13.27;;;;;;;2.67;58.15;100685.41;4995545;28;20577;-71
2021/03/28 01:49:14;;;;;;;25.10;13.23;;;;;;;2.65;58.10;100686.38;5012052;28;20044;-71
2021/03/28 01:52:14;;;;;;;29.23;13.68;;;;;;;2.63;58.27;100683.75;5007727;28;20261;-73
2021/03/28 01:54:48;;;;;;;24.52;12.98;;;;;;;2.60;57.42;100685.66;5009993;28;20092;-68
2021/03/28 01:57:22;;;;;;;29.85;13.65;;;;;;;2.57;58.22;100689.25;5010960;28;20468;-69
2021/03/28 02:00:18;;;;;;;25.40;14.15;;;;;;;2.55;57.44;100691.09;5009993;28;20549;-70
2021/03/28 02:03:08;;;;;;;23.38;13.15;;;;;;;2.59;58.50;100692.72;5009867;28;20034;-67
2021/03/28 02:05:33;;;;;;;24.17;13.65;;;;;;;2.54;57.54;100699.94;5010431;28;20102;-74
2021/03/28 02:08:10;;;;;;;23.02;13.20;;;;;;;2.51;58.00;100703.53;5012856;28;20530;-73
2021/03/28 02:10:58;;;;;;;24.73;13.48;;;;;;;2.53;58.78;100699.09;5015035;28;20044;-73
2021/03/28 02:13:53;;;;;;;22.13;12.73;;;;;;;2.49;58.67;100696.59;5016768;28;20030;-74
2021/03/28 02:16:22;;;;;;;21.58;12.90;;;;;;;2.52;58.66;100707.06;5014773;28;20034;-73
2021/03/28 02:19:12;;;;;;;24.00;13.27;;;;;;;2.52;59.04;100707.91;5012483;28;20482;-73
2021/03/28 02:21:46;;;;;;;26.52;13.93;;;;;;;2.14;58.74;100644.81;5011346;28;20136;-67
2021/03/28 02:24:24;;;;;;;24.17;13.05;;;;;;;2.49;59.23;100709.81;5011027;28;20052;-71
2021/03/28 02:27:10;;;;;;;21.40;12.88;;;;;;;2.50;59.24;100708.91;5012032;28;20133;-71
2021/03/28 02:29:48;;;;;;;25.00;13.10;;;;;;;2.47;58.69;100704.56;5011206;28;20474;-73
2021/03/28 02:32:45;;;;;;;26.70;13.57;;;;;;;2.48;58.95;100706.28;5012162;28;20128;-70
2021/03/28 02:35:10;;;;;;;;;;;;;;;2.60;57.37;100701.53;5012286;28;20353;-70
2021/03/28 02:37:58;;;;;;;25.92;12.80;;;;;;;2.55;58.48;100712.25;5011329;28;20395;-73
2021/03/28 02:40:53;;;;;;;23.65;13.23;;;;;;;2.48;58.75;100702.81;5011876;28;20048;-72
2021/03/28 02:43:41;;;;;;;24.95;12.82;;;;;;;2.45;57.57;100706.41;5010850;28;20483;-72
2021/03/28 02:46:33;;;;;;;26.50;13.63;;;;;;;2.41;59.23;100697.72;5010450;28;20037;-71
2021/03/28 02:49:07;;;;;;;29.77;14.25;;;;;;;2.42;59.27;100706.50;5011315;28;20083;-69
2021/03/28 02:52:05;;;;;;;25.45;14.57;;;;;;;2.27;59.64;100692.00;5007681;28;20030;-69
2021/03/28 02:54:36;;;;;;;26.33;14.68;;;;;;;2.36;58.50;100701.41;5008572;28;20037;-71
2021/03/28 02:57:35;;;;;;;27.40;14.90;;;;;;;2.36;59.62;100701.41;5008515;28;20107;-68
2021/03/28 03:00:26;;;;;;;26.98;14.85;;;;;;;2.27;59.52;100702.56;5009103;28;20033;-69
2021/03/28 03:03:23;;;;;;;27.58;14.98;;;;;;;2.32;59.55;100711.22;5009505;28;20119;-70
2021/03/28 03:06:04;;;;;;;28.88;14.80;;;;;;;2.25;58.67;100707.06;5023863;28;20038;-70
2021/03/28 03:09:00;;;;;;;30.50;15.38;;;;;;;2.27;59.94;100707.88;5006004;28;20116;-73
2021/03/28 03:11:40;;;;;;;26.67;15.57;;;;;;;2.24;60.12;100703.53;5008819;28;20040;-72
2021/03/28 03:14:31;;;;;;;29.40;15.68;;;;;;;1.66;59.93;100611.13;5009208;28;20585;-73
2021/03/28 03:17:18;;;;;;;28.88;15.00;;;;;;;2.20;59.81;100703.69;5008858;28;20073;-67
2021/03/28 03:19:52;;;;;;;33.78;16.45;;;;;;;2.19;59.81;100697.53;5008689;28;20449;-71
2021/03/28 03:23:00;;;;;;;27.30;16.15;;;;;;;2.24;60.66;100707.97;5006806;28;20058;-71
2021/03/28 03:25:47;;;;;;;31.30;17.17;;;;;;;2.28;60.02;100699.88;5007849;28;20089;-70
2021/03/28 03:28:34;;;;;;;28.48;16.23;;;;;;;2.27;59.29;100702.56;5007921;28;20457;-69
2021/03/28 03:31:14;;;;;;;37.88;16.85;;;;;;;2.33;59.96;100702.38;5010672;28;20033;-70
2021/03/28 03:34:06;;;;;;;30.00;16.92;;;;;;;2.43;59.73;100711.75;5009976;28;20446;-71
2021/03/28 03:37:01;;;;;;;40.15;18.35;;;;;;;2.47;59.90;100709.84;5010776;28;20041;-71
2021/03/28 03:39:48;;;;;;;40.47;19.13;;;;;;;2.52;59.00;100709.72;5006909;28;20042;-61
2021/03/28 03:42:25;;;;;;;49.05;22.23;;;;;;;2.83;58.71;100716.59;5008237;28;20042;-70
2021/03/28 03:44:54;;;;;;;53.70;21.80;;;;;;;3.52;56.88;100710.66;5008309;28;20049;-71
2021/03/28 03:47:50;;;;;;;49.55;21.67;;;;;;;4.53;54.27;100712.06;5008028;28;20037;-69
2021/03/28 03:50:24;;;;;;;49.50;22.02;;;;;;;5.37;51.25;100703.19;5007440;28;20125;-70
2021/03/28 03:53:08;;;;;;;47.83;20.83;;;;;;;6.16;49.67;100706.72;5008331;28;20124;-70
2021/03/28 03:55:43;;;;;;;51.92;21.65;;;;;;;6.61;48.49;100717.81;5006175;28;20463;-69
2021/03/28 03:58:23;;;;;;;49.67;22.60;;;;;;;7.07;47.00;100701.31;5007610;28;20141;-68
2021/03/28 04:01:22;;;;;;;63.00;24.83;;;;;;;7.87;45.39;100708.66;5008324;28;20132;-68
2021/03/28 04:04:19;;;;;;;67.60;24.40;;;;;;;8.61;43.32;100711.63;5008288;28;20100;-68
2021/03/28 04:06:57;;;;;;;53.50;24.25;;;;;;;9.26;41.31;100721.16;5011134;28;20030;-68
2021/03/28 04:09:37;;;;;;;68.80;25.98;;;;;;;9.86;41.10;100705.88;5011815;28;20033;-67
2021/03/28 04:12:31;;;;;;;74.28;27.23;;;;;;;10.65;38.85;100717.84;5010714;28;20080;-68
2021/03/28 04:15:02;;;;;;;60.10;26.63;;;;;;;11.40;36.81;100702.97;5011415;28;20084;-67
2021/03/28 04:17:53;;;;;;;64.53;27.92;;;;;;;12.13;35.36;100714.78;5011978;28;20046;-69
2021/03/28 04:20:48;;;;;;;58.47;26.60;;;;;;;13.14;33.96;100715.34;5012135;28;20030;-67
2021/03/28 04:23:52;;;;;;;56.38;25.42;;;;;;;14.19;31.38;100711.56;5011254;28;20308;-68
2021/03/28 04:26:40;;;;;;;60.10;26.10;;;;;;;14.99;30.66;100711.31;5011294;28;20137;-67
2021/03/28 04:29:11;;;;;;;55.80;25.10;;;;;;;15.82;28.95;100707.78;5013650;28;20026;-70
2021/03/28 04:31:40;;;;;;;46.08;24.08;;;;;;;16.50;28.05;100723.34;5013670;28;20096;-70
2021/03/28 04:34:30;;;;;;;47.17;24.48;;;;;;;17.29;26.05;100723.31;5013100;28;20034;-70
2021/03/28 04:37:32;;;;;;;48.67;24.08;;;;;;;18.24;24.23;100718.84;5013309;28;20489;-69
2021/03/28 04:40:30;;;;;;;41.72;23.85;;;;;;;19.22;23.39;100727.06;5013806;28;20167;-68
2021/03/28 04:43:17;;;;;;;43.38;22.85;;;;;;;19.68;23.18;100731.44;5013308;28;20068;-70
2021/03/28 04:45:45;;;;;;;46.95;23.10;;;;;;;20.22;23.31;100728.44;5013190;28;20045;-73
2021/03/28 04:48:13;;;;;;;43.13;22.02;;;;;;;20.77;21.23;100733.47;5013110;28;20041;-71
2021/03/28 04:51:27;;;;;;;40.75;21.08;;;;;;;21.90;19.58;100733.72;5013912;28;20482;-72
2021/03/28 04:54:07;;;;;;;36.35;20.85;;;;;;;22.48;18.88;100731.59;5030706;28;20041;-72
2021/03/28 04:56:54;;;;;;;33.42;20.23;;;;;;;22.85;18.65;100733.72;5013490;28;20108;-71
2021/03/28 04:59:39;;;;;;;31.63;19.38;;;;;;;23.75;17.16;100733.91;5013295;28;20042;-73
2021/03/28 05:02:29;;;;;;;32.93;19.80;;;;;;;24.10;16.59;100720.50;5012198;28;20041;-70
2021/03/28 05:05:19;;;;;;;32.60;20.15;;;;;;;24.41;16.75;100733.09;5012884;28;20045;-67
2021/03/28 05:07:48;;;;;;;29.35;18.00;;;;;;;24.97;16.37;100737.03;5013145;28;20060;-71
2021/03/28 05:10:31;;;;;;;30.58;19.33;;;;;;;25.74;14.68;100736.34;5013492;28;20080;-70
2021/03/28 05:13:37;;;;;;;33.95;18.60;;;;;;;26.44;14.63;100741.75;5011667;28;20124;-67
2021/03/28 05:16:27;;;;;;;33.05;17.92;;;;;;;27.04;14.32;100745.69;4992753;28;20061;-70
2021/03/28 05:18:55;;;;;;;27.00;18.17;;;;;;;27.27;13.93;100745.28;4993103;28;20431;-69
2021/03/28 05:21:23;;;;;;;27.35;17.70;;;;;;;27.69;13.01;100741.41;4993016;28;20517;-69
2021/03/28 05:24:01;;;;;;;27.50;18.40;;;;;;;28.03;13.71;100736.66;4996066;28;20076;-69
2021/03/28 05:27:03;;;;;;;26.38;18.10;;;;;;;28.93;12.55;100745.94;5011990;28;20038;-63
2021/03/28 05:30:09;;;;;;;23.02;17.17;;;;;;;29.48;11.82;100736.16;5012285;28;20476;-66
2021/03/28 05:33:16;;;;;;;27.65;17.50;;;;;;;30.03;12.37;100742.81;5012173;28;20469;-67
2021/03/28 05:35:47;;;;;;;29.60;17.88;;;;;;;30.16;11.86;100742.63;5007941;28;20050;-69
2021/03/28 05:38:25;;;;;;;24.33;16.30;;;;;;;30.55;11.09;100735.94;5008450;28;20092;-68
2021/03/28 05:41:28;;;;;;;27.65;18.00;;;;;;;31.55;10.22;100721.56;5009895;28;20478;-73
2021/03/28 05:44:12;;;;;;;25.88;17.52;;;;;;;32.13;10.04;100736.41;5005118;28;20041;-69
2021/03/28 05:47:08;;;;;;;25.90;17.35;;;;;;;32.28;9.47;100737.78;5010294;28;20042;-69
2021/03/28 05:49:55;;;;;;;20.77;16.92;;;;;;;32.98;9.14;100746.88;5008261;28;20042;-67
2021/03/28 05:52:44;;;;;;;25.30;17.40;;;;;;;33.60;8.65;100738.66;5008691;28;20446;-68
2021/03/28 05:55:38;;;;;;;24.02;15.98;;;;;;;33.28;9.24;100733.75;5009806;28;20133;-70
2021/03/28 05:58:12;;;;;;;21.48;15.95;;;;;;;33.63;8.57;100743.69;5011792;28;20461;-70
2021/03/28 06:00:50;;;;;;;20.73;15.70;;;;;;;33.84;9.00;100728.16;5007009;28;20057;-70
2021/03/28 06:03:21;;;;;;;22.88;16.63;;;;;;;34.18;7.92;100741.94;5010861;28;20289;-69
2021/03/28 06:06:09;;;;;;;22.15;17.45;;;;;;;34.35;8.36;100752.13;5011275;28;20464;-70
2021/03/28 06:08:49;;;;;;;22.17;16.10;;;;;;;34.77;8.34;100745.91;5011785;28;20048;-73
2021/03/28 06:11:52;;;;;;;24.40;16.60;;;;;;;35.70;7.88;100750.53;5011420;28;20037;-71
2021/03/28 06:14:46;;;;;;;21.00;15.70;;;;;;;36.06;7.84;100742.34;5011953;28;20999;-70
2021/03/28 06:17:33;;;;;;;25.30;16.67;;;;;;;35.83;7.33;100744.44;5011811;28;20041;-71
2021/03/28 06:20:04;;;;;;;25.50;17.25;;;;;;;36.33;7.28;100749.66;5011341;28;20172;-63
2021/03/28 06:22:46;;;;;;;24.95;15.60;;;;;;;36.54;6.80;100753.38;5011605;28;20557;-67
2021/03/28 06:25:30;;;;;;;22.20;15.75;;;;;;;37.15;6.50;100746.16;5011555;28;20425;-69
2021/03/28 06:28:33;;;;;;;28.63;17.67;;;;;;;37.95;5.78;100748.47;5010782;28;20041;-71
2021/03/28 06:31:24;;;;;;;23.90;16.73;;;;;;;37.92;5.32;100759.13;5011332;28;20429;-61
2021/03/28 06:34:18;;;;;;;20.73;14.80;;;;;;;38.12;6.32;100760.19;4991781;28;20153;-71
2021/03/28 06:37:21;;;;;;;25.23;16.42;;;;;;;38.38;6.28;100764.78;4993929;28;20486;-72
2021/03/28 06:40:15;;;;;;;23.35;16.00;;;;;;;38.55;5.80;100765.25;4993507;28;20554;-69
2021/03/28 06:43:15;;;;;;;20.77;15.63;;;;;;;39.18;5.53;100769.22;4994391;28;20130;-72
2021/03/28 06:46:15;;;;;;;25.42;16.45;;;;;;;39.82;5.43;100761.91;5008383;28;20061;-73
2021/03/28 06:48:59;;;;;;;23.52;15.90;;;;;;;40.29;5.05;100760.19;5011063;28;20037;-70
2021/03/28 06:51:37;;;;;;;22.65;15.52;;;;;;;40.43;4.62;100757.44;5011671;28;20034;-75
2021/03/28 06:54:21;;;;;;;23.83;15.48;;;;;;;40.77;4.50;100755.53;5011202;28;20052;-73
2021/03/28 06:57:00;;;;;;;28.52;16.52;;;;;;;40.55;4.70;100756.16;5010962;28;20069;-74
2021/03/28 06:59:34;;;;;;;25.88;16.63;;;;;;;40.71;4.54;100745.50;5009786;28;20042;-73
2021/03/28 07:02:14;;;;;;;29.60;17.80;;;;;;;40.86;4.14;100759.31;5009641;28;20493;-64
2021/03/28 07:04:59;;;;;;;31.33;16.75;;;;;;;41.30;4.05;100762.78;5009458;28;20038;-66
2021/03/28 07:08:02;;;;;;;31.67;17.65;;;;;;;42.05;4.04;100759.09;5009551;28;20120;-62
2021/03/28 07:10:56;;;;;;;19.65;13.35;;;;;;;41.77;4.05;100759.09;5008995;28;20034;-62
2021/03/28 07:13:30;;;;;;;14.73;11.50;;;;;;;40.14;4.51;100772.41;5009877;28;20045;-63
2021/03/28 07:16:33;;;;;;;19.48;11.40;;;;;;;40.50;3.96;100762.69;5009619;28;20030;-64
2021/03/28 07:19:39;;;;;;;17.55;13.07;;;;;;;40.26;4.67;100768.31;5002697;28;20038;-63
2021/03/28 07:22:42;;;;;;;19.15;12.13;;;;;;;40.16;4.56;100763.72;5007063;28;20046;-64
2021/03/28 07:25:28;;;;;;;17.50;11.45;;;;;;;39.89;4.20;100763.22;5008903;28;20524;-63
2021/03/28 07:28:31;;;;;;;16.80;11.93;;;;;;;39.83;4.59;100775.63;5008603;28;20039;-63
2021/03/28 07:31:27;;;;;;;17.60;10.80;;;;;;;40.15;3.85;100765.66;5004829;28;20121;-66
2021/03/28 07:34:11;;;;;;;13.07;9.40;;;;;;;40.37;3.73;100758.66;5008041;28;20494;-65
2021/03/28 07:37:20;;;;;;;12.18;9.32;;;;;;;40.85;3.78;100768.06;5004538;28;20116;-64
2021/03/28 07:40:09;;;;;;;12.85;8.82;;;;;;;40.02;3.84;100769.19;5007151;28;20056;-66
2021/03/28 07:43:12;;;;;;;10.43;9.00;;;;;;;40.67;3.32;100766.91;5008050;28;20037;-66
2021/03/28 07:46:13;;;;;;;15.23;9.23;;;;;;;39.37;4.73;100765.72;5006336;28;20034;-66
2021/03/28 07:48:57;;;;;;;11.63;9.25;;;;;;;38.48;4.66;100762.78;5007414;28;20378;-65
2021/03/28 07:51:41;;;;;;;11.57;9.90;;;;;;;38.26;4.54;100765.97;5009055;28;20448;-63
2021/03/28 07:54:44;;;;;;;7.03;6.32;;;;;;;38.13;4.27;100766.59;5009888;28;20041;-64
2021/03/28 07:57:26;;;;;;;7.10;5.97;;;;;;;36.77;4.84;100771.53;5008861;28;20044;-64
2021/03/28 08:00:23;;;;;;;7.45;5.13;;;;;;;36.02;4.82;100766.28;5019512;28;20131;-62
2021/03/28 08:03:00;;;;;;;6.93;4.85;;;;;;;34.13;5.23;100771.63;5004584;28;20128;-61
2021/03/28 08:05:55;;;;;;;7.40;5.50;;;;;;;31.29;6.69;100768.00;5002095;28;20032;-61
2021/03/28 08:08:32;;;;;;;11.60;6.72;;;;;;;28.06;8.59;100774.75;5008862;28;20565;-61
2021/03/28 08:11:21;;;;;;;7.57;5.75;;;;;;;25.28;11.15;100741.28;5009701;28;20037;-61
2021/03/28 08:14:11;;;;;;;12.73;6.50;;;;;;;23.35;12.20;100786.91;5009268;28;20033;-61
2021/03/28 08:17:00;;;;;;;10.60;5.68;;;;;;;20.64;14.27;100761.19;5007745;28;20049;-62
2021/03/28 08:19:38;;;;;;;8.07;5.93;;;;;;;18.85;15.82;100790.47;5000639;28;20038;-63
2021/03/28 08:22:09;;;;;;;12.75;5.75;;;;;;;17.65;17.21;100787.63;5009205;28;20066;-62
2021/03/28 08:25:12;;;;;;;7.78;5.47;;;;;;;17.07;18.18;100790.28;5006809;28;20046;-68
2021/03/28 08:27:43;;;;;;;11.32;5.40;;;;;;;16.36;18.25;100788.59;5004721;28;20125;-65
2021/03/28 08:30:39;;;;;;;9.05;4.45;;;;;;;15.76;18.83;100790.16;5008977;28;20141;-65
2021/03/28 08:33:17;;;;;;;9.52;4.88;;;;;;;15.21;19.34;100749.94;5008965;28;20120;-65
2021/03/28 08:35:52;;;;;;;10.55;5.28;;;;;;;14.93;19.20;100745.06;5003600;28;20133;-64
2021/03/28 08:38:42;;;;;;;11.55;5.00;;;;;;;14.93;19.36;100744.19;5007004;28;20581;-67
2021/03/28 08:41:33;;;;;;;13.70;4.90;;;;;;;14.82;19.53;100753.19;4995603;28;20108;-64
2021/03/28 08:44:30;;;;;;;10.02;4.75;;;;;;;14.82;19.68;100749.63;5008548;28;20054;-62
2021/03/28 08:47:23;;;;;;;9.05;4.05;;;;;;;14.67;19.19;100755.28;5009566;28;20117;-61
2021/03/28 08:49:57;;;;;;;8.43;3.22;;;;;;;13.95;18.86;100689.34;5006691;28;20038;-61
2021/03/28 08:52:48;;;;;;;9.55;3.90;;;;;;;14.05;19.29;100747.72;5007983;28;20563;-61
2021/03/28 08:55:51;;;;;;;10.98;5.63;;;;;;;14.02;20.16;100749.81;5013997;28;20195;-61
2021/03/28 08:58:22;;;;;;;11.77;5.18;;;;;;;13.80;20.34;100745.28;5013611;28;20041;-61
2021/03/28 09:00:56;;;;;;;11.10;5.65;;;;;;;13.53;21.01;100736.59;5012810;28;20050;-61
2021/03/28 09:03:47;;;;;;;11.20;5.60;;;;;;;13.70;21.03;100747.84;5011995;28;20040;-62
2021/03/28 09:06:18;;;;;;;11.23;5.45;;;;;;;13.73;21.19;100756.53;5013182;28;20486;-62
2021/03/28 09:08:54;;;;;;;11.38;4.97;;;;;;;13.88;20.85;100743.69;5013737;28;20042;-61
2021/03/28 09:11:43;;;;;;;16.83;7.78;;;;;;;13.96;21.02;100740.38;5012797;28;20038;-60
2021/03/28 09:14:30;;;;;;;12.10;5.07;;;;;;;14.04;20.89;100753.22;5012856;28;20137;-60
2021/03/28 09:17:30;;;;;;;14.23;5.18;;;;;;;14.12;20.25;100739.16;5011700;28;20084;-61
2021/03/28 09:19:55;;;;;;;10.05;4.53;;;;;;;14.06;20.07;100743.19;5012933;28;20057;-62
2021/03/28 09:22:26;;;;;;;11.48;4.70;;;;;;;13.84;20.28;100735.97;5012339;28;20062;-61
2021/03/28 09:25:04;;;;;;;8.25;4.53;;;;;;;13.70;20.39;100727.19;5011801;28;20103;-61
2021/03/28 09:27:37;;;;;;;19.02;5.00;;;;;;;13.81;20.53;100731.69;5044444;28;20113;-62
2021/03/28 09:30:18;;;;;;;9.48;4.47;;;;;;;14.03;20.82;100743.44;5011002;28;20116;-62
2021/03/28 09:32:54;;;;;;;8.30;4.38;;;;;;;14.19;20.24;100745.75;5010818;28;20029;-61
2021/03/28 09:35:35;;;;;;;11.82;4.40;;;;;;;14.14;19.53;100738.03;5012997;28;20041;-62
2021/03/28 09:38:33;;;;;;;7.25;4.03;;;;;;;14.16;19.74;100740.63;5011500;28;20033;-60
2021/03/28 09:41:21;;;;;;;10.60;4.03;;;;;;;14.33;19.42;100736.53;5012979;28;20048;-62
2021/03/28 09:44:24;;;;;;;8.98;3.80;;;;;;;14.43;20.11;100740.16;5012297;28;20160;-61
2021/03/28 09:47:10;;;;;;;6.25;3.10;;;;;;;14.28;19.08;100736.06;5011087;28;20033;-63
2021/03/28 09:49:58;;;;;;;10.27;3.60;;;;;;;13.99;19.17;100712.38;5011801;28;20077;-66
2021/03/28 09:52:45;;;;;;;6.90;3.70;;;;;;;14.24;19.17;100737.31;5011716;28;20034;-60
2021/03/28 09:55:19;;;;;;;6.15;3.17;;;;;;;14.26;19.49;100740.72;5010987;28;20030;-62
2021/03/28 09:57:51;;;;;;;7.68;3.75;;;;;;;14.30;19.17;100742.19;5012582;28;20029;-65
2021/03/28 10:01:05;;;;;;;4.90;3.38;;;;;;;14.27;19.39;100723.56;5012078;28;20034;-65
2021/03/28 10:03:36;;;;;;;6.45;3.60;;;;;;;14.28;19.41;100744.13;5010143;28;20038;-64
2021/03/28 10:06:12;;;;;;;9.00;4.22;;;;;;;14.11;19.65;100732.06;5027714;28;20064;-63
2021/03/28 10:08:45;;;;;;;7.47;4.00;;;;;;;14.03;19.40;100738.06;5027381;28;20057;-62
2021/03/28 10:11:14;;;;;;;8.32;3.63;;;;;;;14.01;19.31;100740.84;5026539;28;20068;-64
2021/03/28 10:14:08;;;;;;;10.40;4.22;;;;;;;14.05;19.20;100736.09;5026797;28;20522;-62
2021/03/28 10:17:09;;;;;;;8.45;3.58;;;;;;;14.37;19.10;100738.00;5012110;28;20034;-66
2021/03/28 10:19:40;;;;;;;5.18;2.92;;;;;;;14.51;18.57;100744.94;5011960;28;20029;-63
2021/03/28 10:22:56;;;;;;;11.40;3.42;;;;;;;14.76;18.93;100733.00;4994055;28;20148;-66
2021/03/28 10:25:46;;;;;;;12.68;3.60;;;;;;;14.96;18.67;100730.47;5029398;28;20136;-64
2021/03/28 10:28:23;;;;;;;6.75;3.42;;;;;;;15.04;18.12;100730.66;4993916;28;20096;-63
2021/03/28 10:31:16;;;;;;;9.07;3.92;;;;;;;15.05;18.34;100724.28;4996062;28;20111;-63
2021/03/28 10:33:51;;;;;;;9.88;3.70;;;;;;;15.11;18.99;100732.81;5011453;28;20034;-63
2021/03/28 10:36:35;;;;;;;8.32;4.07;;;;;;;15.25;18.55;100719.03;5027314;28;20038;-63
2021/03/28 10:39:28;;;;;;;9.98;4.43;;;;;;;15.22;18.72;100703.09;5011714;28;20177;-60
2021/03/28 10:42:13;;;;;;;7.97;4.57;;;;;;;15.42;18.57;100725.66;5009913;28;20121;-60
2021/03/28 10:45:14;;;;;;;8.55;3.92;;;;;;;15.52;18.42;100728.41;5011487;28;20069;-68
2021/03/28 10:48:38;;;;;;;11.77;4.03;;;;;;;15.51;18.39;100705.09;5011510;28;20107;-63
2021/03/28 10:51:41;;;;;;;7.95;4.05;;;;;;;15.68;18.40;100729.78;4989695;28;20033;-62
2021/03/28 10:54:28;;;;;;;10.35;4.78;;;;;;;15.76;18.01;100728.06;5029003;28;20378;-61
2021/03/28 10:57:31;;;;;;;6.93;3.78;;;;;;;15.61;18.28;100714.09;5011099;28;20552;-65
2021/03/28 11:00:31;;;;;;;7.80;3.67;;;;;;;15.43;18.75;100721.09;5011130;28;20088;-64
2021/03/28 11:03:14;;;;;;;6.50;3.60;;;;;;;15.25;18.53;100729.81;5025646;28;20044;-61
2021/03/28 11:05:52;;;;;;;7.57;3.45;;;;;;;15.18;18.68;100728.59;5010956;28;20037;-70
2021/03/28 11:08:45;;;;;;;7.57;3.40;;;;;;;15.22;18.57;100732.78;5011217;28;20037;-62
2021/03/28 11:11:11;;;;;;;5.57;3.25;;;;;;;15.17;18.70;100718.81;5011161;28;20034;-64
2021/03/28 11:13:58;;;;;;;5.50;3.35;;;;;;;15.19;18.49;100727.63;5009373;28;20026;-61
2021/03/28 11:16:23;;;;;;;7.47;3.65;;;;;;;14.98;18.84;100717.72;5024820;28;20060;-63
2021/03/28 11:19:07;;;;;;;6.28;3.90;;;;;;;14.74;18.87;100708.03;5010945;28;20466;-63
2021/03/28 11:22:00;;;;;;;10.35;3.75;;;;;;;14.54;19.07;100717.72;4992973;28;20067;-62
2021/03/28 11:25:00;;;;;;;7.97;3.70;;;;;;;14.29;19.32;100716.22;5010563;28;20050;-63
2021/03/28 11:27:55;;;;;;;8.65;3.58;;;;;;;14.18;19.31;100714.41;5010435;28;20045;-62
2021/03/28 11:30:44;;;;;;;9.63;3.65;;;;;;;14.02;19.13;100717.50;5011051;28;20069;-62
2021/03/28 11:33:21;;;;;;;8.60;3.60;;;;;;;13.72;19.17;100714.44;5010831;28;20044;-60
2021/03/28 11:35:59;;;;;;;7.65;3.42;;;;;;;13.63;19.41;100710.66;5042283;28;20124;-63
2021/03/28 11:38:38;;;;;;;8.32;3.60;;;;;;;13.61;19.38;100707.22;5007116;28;20180;-63
2021/03/28 11:41:06;;;;;;;7.35;3.60;;;;;;;13.61;19.84;100723.38;4989759;28;20030;-62
2021/03/28 11:43:57;;;;;;;7.70;3.97;;;;;;;13.48;19.88;100718.13;4992764;28;20034;-64
2021/03/28 11:46:28;;;;;;;8.68;3.45;;;;;;;13.39;19.69;100708.06;5004166;28;20052;-66
2021/03/28 11:48:53;;;;;;;7.45;3.30;;;;;;;13.35;19.48;100710.13;5006113;28;20034;-62
2021/03/28 11:51:42;;;;;;;4.28;3.00;;;;;;;13.26;19.40;100709.97;5007726;28;20041;-63
2021/03/28 11:54:11;;;;;;;7.70;3.38;;;;;;;13.18;19.54;100716.81;5007973;28;20501;-62
2021/03/28 11:56:50;;;;;;;8.65;3.28;;;;;;;12.40;19.93;100592.00;5007184;28;20048;-61
2021/03/28 11:59:19;;;;;;;4.70;2.67;;;;;;;13.00;19.61;100711.00;5006494;28;20093;-63
2021/03/28 12:02:03;;;;;;;5.13;3.40;;;;;;;12.83;20.20;100706.94;5008195;28;20123;-63
2021/03/28 12:04:43;;;;;;;9.02;3.30;;;;;;;12.58;20.25;100708.78;5003422;28;20042;-62
2021/03/28 12:07:29;;;;;;;7.35;3.38;;;;;;;12.47;20.38;100709.59;5006446;28;20549;-63
2021/03/28 12:10:00;;;;;;;8.60;3.20;;;;;;;12.36;20.47;100709.53;5008440;28;20054;-64
2021/03/28 12:12:39;;;;;;;7.10;3.03;;;;;;;12.35;20.82;100715.88;5008889;28;20029;-64
2021/03/28 12:15:42;;;;;;;7.82;3.05;;;;;;;12.30;20.60;100715.38;5006841;28;20486;-64
2021/03/28 12:18:23;;;;;;;7.60;3.50;;;;;;;12.24;20.82;100710.44;5008960;28;20073;-62
2021/03/28 12:21:04;;;;;;;8.40;3.58;;;;;;;12.17;20.92;100713.56;5009121;28;20041;-62
2021/03/28 12:23:48;;;;;;;7.28;3.30;;;;;;;12.16;21.48;100709.19;5009122;28;20474;-61
2021/03/28 12:26:15;;;;;;;4.30;3.05;;;;;;;12.20;20.56;100710.66;5006882;28;20045;-63
2021/03/28 12:28:44;;;;;;;7.93;3.38;;;;;;;12.23;20.74;100712.28;5012883;28;20489;-64
2021/03/28 12:31:55;;;;;;;6.93;3.25;;;;;;;12.36;20.43;100706.84;5012724;28;20076;-63
2021/03/28 12:34:29;;;;;;;9.20;3.50;;;;;;;12.43;19.99;100707.28;5008803;28;20041;-63
2021/03/28 12:37:10;;;;;;;5.88;2.85;;;;;;;12.57;19.90;100701.69;5006143;28;20092;-61
2021/03/28 12:39:41;;;;;;;11.95;3.33;;;;;;;12.72;20.15;100705.06;5013207;28;20136;-66
2021/03/28 12:42:29;;;;;;;5.75;3.13;;;;;;;13.00;19.78;100711.00;5013652;28;20108;-64